Time;durP1;ratioP1;P1;durP2;ratioP2;P2;SDS_P1;SDS_P2;PMS_P1;PMS_P2;Temp;Humidity;BMP_temperature;BMP_pressure;BME280_temperature;BME280_humidity;BME280_pressure;Samples;Min_cycle;Max_cycle;Signal;HPM_P1;HPM_P2
2021/03/05 00:00:14;;;;;;;20.15;4.78;;;;;;;4.10;100.00;101713.72;4929743;29;20039;-75
2021/03/05 00:02:40;;;;;;;16.58;5.28;;;;;;;4.08;100.00;101713.75;4939800;28;20039;-74
2021/03/05 00:05:10;;;;;;;21.40;5.00;;;;;;;4.06;100.00;101726.22;4925818;28;20035;-75
2021/03/05 00:07:36;;;;;;;16.83;4.78;;;;;;;4.04;100.00;101728.03;4935047;29;20035;-74
2021/03/05 00:10:06;;;;;;;37.83;7.07;;;;;;;4.05;100.00;101734.22;4950307;28;20035;-75
2021/03/05 00:12:31;;;;;;;26.40;7.38;;;;;;;4.07;100.00;101730.59;4949535;28;20493;-75
2021/03/05 00:14:57;;;;;;;21.80;5.07;;;;;;;4.03;100.00;101734.25;4935827;28;20122;-74
2021/03/05 00:17:22;;;;;;;20.20;5.25;;;;;;;3.96;100.00;101729.97;4949959;28;20043;-74
2021/03/05 00:19:48;;;;;;;24.58;5.47;;;;;;;3.87;100.00;101740.78;4931557;28;20039;-74
2021/03/05 00:22:13;;;;;;;18.83;5.15;;;;;;;3.86;100.00;101739.03;4940316;28;20445;-75
2021/03/05 00:24:39;;;;;;;21.48;5.18;;;;;;;3.90;100.00;101750.47;4935100;29;20038;-74
2021/03/05 00:27:05;;;;;;;33.83;6.90;;;;;;;3.79;100.00;101742.72;4935167;29;20457;-74
2021/03/05 00:29:30;;;;;;;18.52;5.57;;;;;;;3.86;100.00;101746.13;4920136;29;20050;-75
2021/03/05 00:31:55;;;;;;;24.45;5.45;;;;;;;3.84;100.00;101755.91;4932991;28;20035;-75
2021/03/05 00:34:21;;;;;;;22.25;5.15;;;;;;;3.86;100.00;101754.97;4947267;28;20047;-74
2021/03/05 00:36:48;;;;;;;23.80;5.60;;;;;;;3.76;100.00;101763.16;4918005;28;20126;-75
2021/03/05 00:39:14;;;;;;;26.10;4.60;;;;;;;3.77;100.00;101760.44;4929486;29;20039;-75
2021/03/05 00:41:40;;;;;;;36.67;7.30;;;;;;;3.82;100.00;101763.91;4924509;29;20052;-75
2021/03/05 00:44:06;;;;;;;20.08;5.68;;;;;;;3.80;100.00;101759.53;4950143;28;20406;-74
2021/03/05 00:46:33;;;;;;;24.50;5.68;;;;;;;3.80;100.00;101765.72;4937309;29;20114;-74
2021/03/05 00:48:58;;;;;;;34.63;6.22;;;;;;;3.77;100.00;101764.88;4918177;28;20031;-75
2021/03/05 00:51:26;;;;;;;32.75;5.97;;;;;;;3.75;100.00;101772.91;4917952;29;20498;-75
2021/03/05 00:53:52;;;;;;;25.00;5.78;;;;;;;3.70;100.00;101774.78;4925784;29;20051;-74
2021/03/05 00:56:18;;;;;;;25.92;4.93;;;;;;;3.67;100.00;101765.09;4919977;28;20038;-75
2021/03/05 00:58:44;;;;;;;22.40;4.90;;;;;;;3.79;100.00;101766.63;4927116;28;20028;-74
2021/03/05 01:01:14;;;;;;;27.23;5.03;;;;;;;3.79;100.00;101774.59;4947722;28;20202;-74
2021/03/05 01:03:40;;;;;;;22.80;6.15;;;;;;;3.69;100.00;101772.16;4929571;29;20188;-74
2021/03/05 01:06:05;;;;;;;22.48;4.68;;;;;;;3.68;100.00;101776.56;4927264;29;20050;-74
2021/03/05 01:08:32;;;;;;;18.67;5.25;;;;;;;3.73;100.00;101764.09;4927836;29;20040;-75
2021/03/05 01:10:59;;;;;;;28.73;5.82;;;;;;;3.83;100.00;101760.31;4917670;28;20103;-74
2021/03/05 01:13:24;;;;;;;17.52;5.88;;;;;;;3.75;100.00;101772.91;4930313;29;20035;-74
2021/03/05 01:15:51;;;;;;;32.60;5.82;;;;;;;3.88;100.00;101776.19;4945865;28;20122;-74
2021/03/05 01:18:16;;;;;;;29.42;5.55;;;;;;;3.81;100.00;101778.09;4933824;29;20134;-74
2021/03/05 01:20:42;;;;;;;28.90;6.40;;;;;;;3.81;100.00;101775.44;4928960;28;20122;-73
2021/03/05 01:23:08;;;;;;;32.83;6.22;;;;;;;3.82;100.00;101781.63;4914838;29;20072;-74
2021/03/05 01:25:37;;;;;;;29.00;5.45;;;;;;;3.75;100.00;101783.53;4941802;29;20039;-74
2021/03/05 01:28:03;;;;;;;25.48;6.13;;;;;;;3.75;100.00;101782.66;4944024;28;20474;-75
2021/03/05 01:30:28;;;;;;;27.35;6.05;;;;;;;3.80;100.00;101786.97;4948445;28;20288;-74
2021/03/05 01:32:54;;;;;;;27.10;6.30;;;;;;;3.82;100.00;101789.59;4925876;28;20110;-74
2021/03/05 01:35:25;;;;;;;35.67;9.57;;;;;;;3.69;100.00;101791.63;4939990;28;20122;-75
2021/03/05 01:37:51;;;;;;;29.30;6.78;;;;;;;3.78;100.00;101783.44;4920565;28;20182;-74
2021/03/05 01:40:20;;;;;;;23.88;6.07;;;;;;;3.67;100.00;101780.13;4954180;28;20051;-74
2021/03/05 01:42:46;;;;;;;30.83;6.85;;;;;;;3.70;100.00;101782.75;4949470;28;20103;-74
2021/03/05 01:45:20;;;;;;;25.77;7.22;;;;;;;3.80;100.00;101788.75;4936828;29;20039;-74
2021/03/05 01:47:47;;;;;;;30.48;7.60;;;;;;;3.84;100.00;101788.63;4926366;28;20090;-75
2021/03/05 01:50:16;;;;;;;24.23;6.95;;;;;;;3.81;100.00;101783.41;4937900;28;20031;-74
2021/03/05 01:53:00;;;;;;;35.10;8.48;;;;;;;3.77;100.00;101787.00;4954946;28;20344;-74
2021/03/05 01:55:27;;;;;;;35.97;9.52;;;;;;;3.78;100.00;101788.75;4918705;29;20165;-74
2021/03/05 01:57:54;;;;;;;28.35;8.23;;;;;;;3.82;100.00;101785.16;4939856;28;20122;-73
2021/03/05 02:00:32;;;;;;;36.03;7.70;;;;;;;3.82;100.00;101784.28;4942486;29;20075;-75
2021/03/05 02:02:58;;;;;;;33.83;7.30;;;;;;;3.73;100.00;101785.31;4917750;28;20259;-75
2021/03/05 02:05:24;;;;;;;36.22;8.00;;;;;;;3.73;100.00;101781.78;4951049;28;20054;-74
2021/03/05 02:07:49;;;;;;;27.88;8.02;;;;;;;3.75;100.00;101778.22;4936348;28;20157;-75
2021/03/05 02:10:15;;;;;;;28.55;9.35;;;;;;;3.71;100.00;101780.94;4930770;29;20130;-75
2021/03/05 02:12:41;;;;;;;37.03;9.95;;;;;;;3.69;100.00;101782.78;4948862;28;20062;-75
2021/03/05 02:15:08;;;;;;;37.55;8.65;;;;;;;3.69;100.00;101788.06;4943281;28;20482;-75
2021/03/05 02:17:37;;;;;;;36.25;8.68;;;;;;;3.83;100.00;101786.88;4947699;28;20031;-73
2021/03/05 02:20:09;;;;;;;42.15;8.35;;;;;;;3.82;100.00;101792.25;4942011;28;20117;-74
2021/03/05 02:23:07;;;;;;;33.47;9.25;;;;;;;3.81;100.00;101790.50;4934221;29;20043;-75
2021/03/05 02:26:06;;;;;;;29.85;8.95;;;;;;;3.79;100.00;101795.81;4926625;29;20422;-74
2021/03/05 02:29:05;;;;;;;30.70;9.88;;;;;;;3.74;100.00;101799.47;4930070;29;20318;-75
2021/03/05 02:31:49;;;;;;;39.40;9.60;;;;;;;3.81;100.00;101799.34;4935394;29;20125;-75
2021/03/05 02:34:27;;;;;;;35.88;10.25;;;;;;;3.83;100.00;101792.19;4920943;29;20074;-75
2021/03/05 02:36:56;;;;;;;28.38;10.50;;;;;;;3.82;100.00;101801.09;4933784;28;20031;-75
2021/03/05 02:39:27;;;;;;;34.63;10.43;;;;;;;3.77;100.00;101796.75;4919833;29;20041;-75
2021/03/05 02:41:58;;;;;;;30.63;11.38;;;;;;;3.80;100.00;101799.38;4933992;29;20107;-75
2021/03/05 02:44:26;;;;;;;29.10;11.13;;;;;;;3.76;100.00;101806.53;4948761;28;20045;-74
2021/03/05 02:46:57;;;;;;;30.85;12.85;;;;;;;3.91;100.00;101805.34;4930180;28;20299;-74
2021/03/05 02:49:32;;;;;;;34.65;12.82;;;;;;;3.77;100.00;101812.69;4928143;29;20039;-75
2021/03/05 02:52:04;;;;;;;36.85;12.50;;;;;;;3.91;100.00;101810.66;4941032;28;20042;-74
2021/03/05 02:54:31;;;;;;;42.38;13.88;;;;;;;3.90;100.00;101809.78;4919341;29;20065;-75
2021/03/05 02:56:59;;;;;;;35.70;12.55;;;;;;;3.96;100.00;101814.97;4923479;28;20126;-74
2021/03/05 02:59:26;;;;;;;35.50;13.20;;;;;;;3.86;100.00;101817.84;4943279;28;20558;-73
2021/03/05 03:01:52;;;;;;;37.70;14.90;;;;;;;3.86;100.00;101821.38;4914121;28;20027;-75
2021/03/05 03:04:18;;;;;;;37.17;14.05;;;;;;;3.95;100.00;101821.19;4941749;28;20059;-74
2021/03/05 03:06:45;;;;;;;41.47;14.15;;;;;;;3.86;100.00;101824.03;4932590;28;20082;-74
2021/03/05 03:09:13;;;;;;;37.10;16.05;;;;;;;3.84;100.00;101825.81;4923541;29;20032;-74
2021/03/05 03:11:41;;;;;;;42.40;16.77;;;;;;;3.94;100.00;101827.41;4930528;29;20047;-75
2021/03/05 03:14:07;;;;;;;37.17;16.30;;;;;;;3.93;100.00;101830.97;4928600;29;20031;-74
2021/03/05 03:16:37;;;;;;;39.22;17.00;;;;;;;4.06;100.00;101837.81;4924545;29;20039;-75
2021/03/05 03:19:09;;;;;;;34.67;15.95;;;;;;;3.95;100.00;101833.63;4917488;28;20489;-74
2021/03/05 03:21:39;;;;;;;37.15;17.02;;;;;;;3.89;100.00;101839.03;4943344;28;20126;-75
2021/03/05 03:24:05;;;;;;;33.97;16.70;;;;;;;3.91;100.00;101838.09;4932403;28;20055;-75
2021/03/05 03:26:32;;;;;;;32.38;15.63;;;;;;;3.89;100.00;101853.16;4948019;28;20340;-75
2021/03/05 03:28:57;;;;;;;31.67;14.75;;;;;;;3.80;100.00;101845.38;4940680;28;20047;-75
2021/03/05 03:31:23;;;;;;;27.77;14.13;;;;;;;3.84;100.00;101849.72;4914347;29;20035;-75
2021/03/05 03:33:49;;;;;;;36.63;15.50;;;;;;;3.84;100.00;101852.38;4931664;28;20043;-75
2021/03/05 03:36:16;;;;;;;33.03;16.60;;;;;;;3.84;100.00;101852.38;4917462;29;20539;-75
2021/03/05 03:38:47;;;;;;;34.47;16.38;;;;;;;3.91;100.00;101858.47;4922344;29;20058;-74
2021/03/05 03:41:13;;;;;;;33.40;15.65;;;;;;;3.78;100.00;101860.47;4925322;29;20110;-75
2021/03/05 03:43:39;;;;;;;33.10;15.20;;;;;;;3.72;100.00;101868.53;4938100;29;20066;-75
2021/03/05 03:46:08;;;;;;;29.42;15.80;;;;;;;3.76;100.00;101866.72;4916813;28;20468;-75
2021/03/05 03:48:37;;;;;;;33.17;16.58;;;;;;;3.70;100.00;101866.84;4917439;29;20126;-75
2021/03/05 03:51:06;;;;;;;33.30;16.15;;;;;;;3.70;100.00;101865.06;4929661;28;20057;-74
2021/03/05 03:53:35;;;;;;;30.73;16.25;;;;;;;3.77;100.00;101876.41;4934330;29;20070;-73
2021/03/05 03:56:04;;;;;;;35.17;15.18;;;;;;;3.68;100.00;101880.13;4911035;28;20476;-74
2021/03/05 03:58:30;;;;;;;30.55;15.05;;;;;;;3.72;100.00;101871.19;4930770;29;20074;-74
2021/03/05 04:00:59;;;;;;;27.27;14.40;;;;;;;3.62;100.00;101888.19;4946363;28;20066;-75
2021/03/05 04:03:28;;;;;;;31.48;14.80;;;;;;;3.60;100.00;101887.34;4953108;28;20039;-74
2021/03/05 04:05:55;;;;;;;28.98;14.13;;;;;;;3.58;100.00;101886.50;4942034;28;20039;-75
2021/03/05 04:08:22;;;;;;;26.95;14.05;;;;;;;3.54;100.00;101890.09;4934969;29;20047;-75
2021/03/05 04:10:48;;;;;;;26.90;13.65;;;;;;;3.55;100.00;101889.19;4920941;28;20102;-75
2021/03/05 04:13:14;;;;;;;25.98;13.13;;;;;;;3.49;100.00;101897.28;4931580;29;20102;-74
2021/03/05 04:15:41;;;;;;;26.15;12.85;;;;;;;3.49;100.00;101898.16;4935915;29;20039;-75
2021/03/05 04:18:06;;;;;;;28.40;14.13;;;;;;;3.46;100.00;101903.50;4951639;28;20322;-75
2021/03/05 04:20:36;;;;;;;22.10;11.63;;;;;;;3.49;100.00;101907.88;4928944;29;20034;-75
2021/03/05 04:23:03;;;;;;;23.50;12.27;;;;;;;3.60;100.00;101913.88;4944897;28;20031;-74
2021/03/05 04:25:29;;;;;;;29.63;12.20;;;;;;;3.49;100.00;101924.69;4931258;29;20070;-75
2021/03/05 04:27:54;;;;;;;24.00;10.48;;;;;;;3.50;100.00;101921.13;4934657;28;21515;-73
2021/03/05 04:30:20;;;;;;;23.08;9.95;;;;;;;3.49;97.27;101935.31;4915215;29;20073;-74
2021/03/05 04:32:45;;;;;;;21.45;9.63;;;;;;;3.35;98.33;101931.09;4947382;28;20519;-74
2021/03/05 04:35:12;;;;;;;17.48;9.63;;;;;;;3.43;99.04;101934.53;4947260;28;20023;-75
2021/03/05 04:37:38;;;;;;;19.42;9.45;;;;;;;3.33;100.00;101944.41;4930108;29;20027;-75
2021/03/05 04:40:07;;;;;;;23.58;10.02;;;;;;;3.26;100.00;101940.09;4938528;28;20105;-74
2021/03/05 04:42:32;;;;;;;15.05;8.30;;;;;;;3.25;100.00;101941.88;4951245;28;20042;-74
2021/03/05 04:44:58;;;;;;;20.30;8.75;;;;;;;3.19;100.00;101947.28;4952541;28;20035;-74
2021/03/05 04:47:24;;;;;;;17.17;8.38;;;;;;;3.13;100.00;101947.34;4937153;28;20042;-73
2021/03/05 04:49:49;;;;;;;17.70;8.02;;;;;;;3.10;98.86;101952.69;4925231;29;20039;-75
2021/03/05 04:52:15;;;;;;;20.92;8.05;;;;;;;3.04;96.81;101957.19;4951692;28;20034;-75
2021/03/05 04:54:41;;;;;;;13.48;6.35;;;;;;;2.92;96.14;101962.66;4942714;28;20603;-74
2021/03/05 04:57:06;;;;;;;10.57;5.80;;;;;;;2.86;93.58;101953.03;4934801;28;20023;-75
2021/03/05 04:59:32;;;;;;;13.57;6.43;;;;;;;2.85;93.87;101961.88;4914922;29;20398;-75
2021/03/05 05:01:57;;;;;;;13.65;6.57;;;;;;;2.67;95.19;101972.69;4920873;28;20054;-74
2021/03/05 05:04:23;;;;;;;11.98;6.07;;;;;;;2.68;94.81;101974.47;4919361;28;20050;-74
2021/03/05 05:06:51;;;;;;;13.57;6.53;;;;;;;2.68;94.73;101971.81;4914482;28;20438;-75
2021/03/05 05:09:20;;;;;;;13.00;6.38;;;;;;;2.45;95.58;101980.03;4944742;28;20035;-75
2021/03/05 05:11:46;;;;;;;10.75;6.05;;;;;;;2.53;95.76;101979.97;4933276;28;20042;-74
2021/03/05 05:14:11;;;;;;;12.18;5.78;;;;;;;2.51;95.14;101981.75;4942885;28;20032;-74
2021/03/05 05:16:37;;;;;;;15.02;7.05;;;;;;;2.34;96.16;101985.47;4914530;29;20044;-75
2021/03/05 05:19:02;;;;;;;12.98;5.70;;;;;;;2.37;94.60;101995.13;4941004;28;20122;-74
2021/03/05 05:21:28;;;;;;;11.93;5.65;;;;;;;2.24;95.29;101997.03;4934707;29;20138;-75
2021/03/05 05:23:53;;;;;;;12.05;5.70;;;;;;;2.18;95.32;102005.03;4943163;28;20115;-74
2021/03/05 05:26:22;;;;;;;16.90;6.28;;;;;;;2.14;95.37;102003.31;4932036;29;20114;-74
2021/03/05 05:28:47;;;;;;;10.63;6.18;;;;;;;2.13;94.27;102006.84;4921453;28;20400;-75
2021/03/05 05:31:13;;;;;;;12.75;5.32;;;;;;;2.09;95.49;102001.59;4921719;29;20114;-75
2021/03/05 05:33:38;;;;;;;14.10;5.72;;;;;;;2.04;94.71;102002.50;4931637;29;20082;-75
2021/03/05 05:36:04;;;;;;;9.82;5.10;;;;;;;1.98;95.99;102006.97;4952216;28;20118;-74
2021/03/05 05:38:29;;;;;;;12.82;5.55;;;;;;;2.00;95.68;102015.78;4941913;28;20043;-74
2021/03/05 05:41:02;;;;;;;13.48;6.07;;;;;;;1.93;96.19;102008.78;4918122;28;20035;-74
2021/03/05 05:43:30;;;;;;;10.65;5.63;;;;;;;1.94;97.35;102015.84;4925122;29;20088;-75
2021/03/05 05:46:04;;;;;;;9.85;5.35;;;;;;;1.82;97.89;102018.56;4916038;29;20175;-73
2021/03/05 05:48:33;;;;;;;15.73;6.65;;;;;;;1.79;99.02;102015.97;4953570;28;20042;-73
2021/03/05 05:51:00;;;;;;;13.70;5.60;;;;;;;1.72;98.42;102027.50;4943798;28;20099;-74
2021/03/05 05:53:33;;;;;;;16.83;6.13;;;;;;;1.59;98.57;102032.88;4937228;29;20546;-74
2021/03/05 05:56:02;;;;;;;10.23;5.30;;;;;;;1.56;98.50;102032.00;4947187;28;20039;-74
2021/03/05 05:58:28;;;;;;;11.85;5.32;;;;;;;1.54;99.15;102032.00;4921716;29;20078;-74
2021/03/05 06:00:55;;;;;;;11.45;5.30;;;;;;;1.59;98.32;102035.50;4945244;28;20471;-75
2021/03/05 06:03:24;;;;;;;12.73;5.47;;;;;;;1.51;96.71;102039.97;4925739;29;20032;-74
2021/03/05 06:05:53;;;;;;;13.48;5.68;;;;;;;1.46;97.38;102038.25;4934420;28;20077;-73
2021/03/05 06:08:19;;;;;;;10.27;4.97;;;;;;;1.42;97.46;102042.66;4944365;28;20135;-75
2021/03/05 06:10:44;;;;;;;11.45;5.25;;;;;;;1.43;97.52;102049.72;4947081;28;20119;-74
2021/03/05 06:13:10;;;;;;;11.57;4.85;;;;;;;1.46;96.76;102049.72;4939285;28;20043;-74
2021/03/05 06:15:35;;;;;;;8.82;4.30;;;;;;;1.51;95.97;102054.97;4951905;28;20034;-74
2021/03/05 06:18:01;;;;;;;10.13;3.95;;;;;;;1.46;95.77;102070.88;4949958;28;20035;-75
2021/03/05 06:20:44;;;;;;;9.02;3.88;;;;;;;1.40;95.01;102075.31;4933090;29;20049;-75
2021/03/05 06:23:13;;;;;;;13.00;4.75;;;;;;;1.39;95.40;102068.25;4943447;28;20522;-74
2021/03/05 06:25:39;;;;;;;14.90;4.78;;;;;;;1.39;95.46;102078.84;4930542;29;20046;-74
2021/03/05 06:28:15;;;;;;;9.75;4.10;;;;;;;1.31;94.39;102081.50;4942744;28;20035;-75
2021/03/05 06:30:41;;;;;;;9.93;4.05;;;;;;;1.23;94.00;102086.84;4937429;29;20114;-75
2021/03/05 06:33:22;;;;;;;8.93;3.78;;;;;;;1.30;95.03;102098.28;4927588;28;20150;-75
2021/03/05 06:35:48;;;;;;;8.13;3.28;;;;;;;1.24;94.90;102095.66;4940239;28;20122;-74
2021/03/05 06:38:43;;;;;;;8.65;3.25;;;;;;;1.28;94.25;102101.81;4931818;29;20044;-75
2021/03/05 06:41:20;;;;;;;6.40;3.17;;;;;;;1.28;91.44;102102.72;4911966;29;20122;-75
2021/03/05 06:43:48;;;;;;;9.60;4.03;;;;;;;1.23;93.16;102110.63;4915040;28;20114;-73
2021/03/05 06:46:29;;;;;;;9.18;3.28;;;;;;;1.23;92.91;102108.00;4915755;29;20039;-75
2021/03/05 06:48:55;;;;;;;10.40;3.10;;;;;;;1.16;92.95;102113.34;4925592;28;20522;-75
2021/03/05 06:51:22;;;;;;;5.07;2.58;;;;;;;1.14;92.24;102130.97;4945666;28;20079;-74
2021/03/05 06:53:48;;;;;;;11.75;3.13;;;;;;;1.14;93.08;102131.84;4931168;28;20043;-74
2021/03/05 06:56:30;;;;;;;6.75;3.33;;;;;;;1.10;93.01;102134.50;4919497;29;20042;-75
2021/03/05 06:59:08;;;;;;;10.85;3.72;;;;;;;1.10;92.60;102145.97;4923573;28;20046;-75
2021/03/05 07:01:45;;;;;;;9.63;3.60;;;;;;;1.10;93.34;102145.09;4917014;29;20454;-74
2021/03/05 07:04:19;;;;;;;9.93;3.40;;;;;;;1.18;92.36;102143.28;4938329;28;20027;-75
2021/03/05 07:06:45;;;;;;;10.77;5.07;;;;;;;1.14;93.02;102150.34;4945342;28;20032;-75
2021/03/05 07:09:23;;;;;;;9.13;3.50;;;;;;;1.18;92.82;102153.84;4921045;29;20618;-75
2021/03/05 07:11:49;;;;;;;10.10;3.35;;;;;;;1.28;92.87;102160.91;4929430;28;20549;-75
2021/03/05 07:14:15;;;;;;;6.95;3.05;;;;;;;1.49;92.36;102163.44;4916899;29;20047;-75
2021/03/05 07:16:49;;;;;;;13.13;2.92;;;;;;;1.63;91.47;102169.56;4933952;29;20504;-75
2021/03/05 07:19:17;;;;;;;9.05;3.63;;;;;;;1.95;89.49;102168.53;4937613;28;20043;-75
2021/03/05 07:21:46;;;;;;;7.18;3.47;;;;;;;2.38;88.21;102174.44;4928719;29;20516;-75
2021/03/05 07:24:14;;;;;;;9.18;3.33;;;;;;;2.81;84.46;102188.19;4935294;29;20323;-75
2021/03/05 07:26:56;;;;;;;7.75;2.80;;;;;;;3.09;82.56;102200.28;4953284;28;20032;-75
2021/03/05 07:29:25;;;;;;;8.63;2.75;;;;;;;3.60;80.02;102193.53;4928391;29;20043;-75
2021/03/05 07:31:58;;;;;;;7.38;2.80;;;;;;;3.64;76.84;102210.34;4927594;28;20039;-75
2021/03/05 07:34:26;;;;;;;11.70;3.10;;;;;;;3.82;76.61;102209.22;4958329;28;20130;-74
2021/03/05 07:36:56;;;;;;;7.75;2.78;;;;;;;4.17;75.57;102222.03;4918267;28;20028;-75
2021/03/05 07:39:28;;;;;;;6.45;3.25;;;;;;;4.51;73.14;102223.28;4934571;28;20030;-75
2021/03/05 07:41:55;;;;;;;6.72;2.80;;;;;;;4.94;72.42;102228.78;4940885;29;20125;-75
2021/03/05 07:44:21;;;;;;;5.50;2.65;;;;;;;5.30;70.36;102227.28;4921156;29;20046;-75
2021/03/05 07:46:48;;;;;;;9.23;2.70;;;;;;;4.84;68.49;102236.06;4927290;28;20394;-75
2021/03/05 07:49:15;;;;;;;10.65;2.75;;;;;;;5.10;68.67;102240.06;4911000;29;20529;-75
2021/03/05 07:51:41;;;;;;;10.15;3.08;;;;;;;5.42;68.54;102232.38;4918708;29;20050;-75
2021/03/05 07:54:07;;;;;;;10.48;2.90;;;;;;;5.61;67.54;102238.22;4925269;29;20019;-76
2021/03/05 07:56:44;;;;;;;11.38;2.85;;;;;;;5.82;65.98;102247.56;4932383;29;20206;-75
2021/03/05 07:59:10;;;;;;;13.18;3.25;;;;;;;5.90;64.78;102258.97;4911178;29;20070;-75
2021/03/05 08:01:51;;;;;;;8.80;2.65;;;;;;;6.32;65.29;102255.41;4938887;29;20130;-75
2021/03/05 08:04:17;;;;;;;13.45;3.90;;;;;;;6.56;64.72;102263.75;4931535;28;20508;-76
2021/03/05 08:06:43;;;;;;;23.50;7.35;;;;;;;6.70;62.00;102272.31;4931022;29;20043;-75
2021/03/05 08:09:17;;;;;;;8.98;2.92;;;;;;;6.95;62.38;102265.47;4913565;28;20078;-75
2021/03/05 08:11:43;;;;;;;8.45;2.60;;;;;;;6.75;61.34;102271.28;4932371;29;20039;-76
2021/03/05 08:14:24;;;;;;;7.13;2.13;;;;;;;6.44;61.15;102281.78;4928600;28;20035;-75
2021/03/05 08:16:50;;;;;;;12.57;2.53;;;;;;;6.29;62.50;102278.59;4921950;28;20142;-75
2021/03/05 08:19:16;;;;;;;7.72;2.65;;;;;;;6.62;61.07;102275.16;4934577;29;20514;-76
2021/03/05 08:21:57;;;;;;;6.15;2.10;;;;;;;6.71;59.65;102279.41;4931890;29;20269;-75
2021/03/05 08:24:27;;;;;;;10.38;2.75;;;;;;;6.69;61.53;102281.22;4931663;28;20043;-75
2021/03/05 08:27:11;;;;;;;8.23;1.95;;;;;;;6.83;59.23;102280.00;4948598;28;20459;-75
2021/03/05 08:30:04;;;;;;;6.47;2.08;;;;;;;7.08;59.07;102274.94;4934098;29;20050;-75
2021/03/05 08:32:32;;;;;;;6.83;2.23;;;;;;;7.39;57.56;102283.03;4929137;29;20051;-75
2021/03/05 08:35:09;;;;;;;9.63;2.60;;;;;;;7.52;56.38;102292.50;4929012;28;20041;-75
2021/03/05 08:37:39;;;;;;;8.00;2.03;;;;;;;7.65;56.88;102287.69;4933109;29;20040;-76
2021/03/05 08:40:16;;;;;;;11.98;2.33;;;;;;;7.80;56.77;102292.59;4936185;28;20039;-75
2021/03/05 08:42:43;;;;;;;7.53;2.35;;;;;;;8.11;55.22;102288.16;4935601;29;20042;-75
2021/03/05 08:45:19;;;;;;;6.20;2.10;;;;;;;8.39;53.60;102292.72;4937367;28;20409;-75
2021/03/05 08:47:49;;;;;;;8.02;1.90;;;;;;;7.87;54.53;102298.66;4925866;28;20049;-73
2021/03/05 08:50:16;;;;;;;9.27;1.83;;;;;;;8.10;53.82;102297.09;4940960;29;20047;-75
2021/03/05 08:52:44;;;;;;;4.22;2.10;;;;;;;7.91;52.80;102301.19;4936508;28;20131;-74
2021/03/05 08:55:11;;;;;;;7.72;2.00;;;;;;;7.71;55.34;102304.41;4911577;28;20114;-74
2021/03/05 08:57:54;;;;;;;4.90;2.28;;;;;;;8.29;53.83;102312.59;4930277;29;20169;-74
2021/03/05 09:00:22;;;;;;;5.18;2.00;;;;;;;8.61;52.96;102309.88;4919814;29;20040;-74
2021/03/05 09:02:50;;;;;;;4.95;1.63;;;;;;;8.64;51.99;102323.13;4931495;28;20044;-75
2021/03/05 09:05:26;;;;;;;4.70;1.77;;;;;;;8.34;52.33;102316.03;4933591;29;20386;-75
2021/03/05 09:07:54;;;;;;;10.40;2.00;;;;;;;8.31;51.05;102310.78;4946406;28;20334;-74
2021/03/05 09:10:36;;;;;;;4.65;1.63;;;;;;;8.44;52.79;102318.41;4947963;28;20394;-75
2021/03/05 09:13:02;;;;;;;4.28;1.60;;;;;;;8.51;51.10;102322.66;4930595;28;20171;-75
2021/03/05 09:15:47;;;;;;;6.63;1.63;;;;;;;8.26;53.02;102324.28;4915193;29;20042;-75
2021/03/05 09:18:21;;;;;;;7.00;2.03;;;;;;;8.46;53.26;102323.69;4919599;29;20035;-73
2021/03/05 09:20:50;;;;;;;5.68;1.75;;;;;;;8.48;52.99;102332.56;4939353;28;20071;-73
2021/03/05 09:23:29;;;;;;;7.32;2.30;;;;;;;8.42;52.79;102328.28;4930677;29;20043;-75
2021/03/05 09:26:06;;;;;;;5.13;2.00;;;;;;;7.88;51.65;102341.41;4938701;28;20043;-74
2021/03/05 09:28:45;;;;;;;5.50;2.10;;;;;;;7.51;51.89;102343.28;4902956;29;20056;-74
2021/03/05 09:31:25;;;;;;;11.40;1.60;;;;;;;7.30;55.16;102345.59;4916452;28;20411;-74
2021/03/05 09:33:50;;;;;;;8.68;2.15;;;;;;;7.28;53.60;102342.06;4939705;28;20094;-74
2021/03/05 09:36:20;;;;;;;8.18;2.58;;;;;;;7.28;54.45;102336.72;4934295;29;20039;-76
2021/03/05 09:38:55;;;;;;;7.90;2.38;;;;;;;7.26;57.09;102333.22;4925674;29;20028;-76
2021/03/05 09:41:27;;;;;;;7.93;3.00;;;;;;;7.15;54.13;102335.28;4926365;29;20123;-76
2021/03/05 09:44:04;;;;;;;8.88;2.95;;;;;;;6.90;53.44;102334.13;4942266;28;20027;-76
2021/03/05 09:46:34;;;;;;;6.63;2.90;;;;;;;7.02;56.09;102347.19;4926978;29;20107;-76
2021/03/05 09:49:20;;;;;;;13.27;2.85;;;;;;;6.97;53.92;102351.75;4935493;28;20036;-76
2021/03/05 09:51:46;;;;;;;11.00;3.80;;;;;;;6.84;54.35;102348.50;4942438;28;20106;-76
2021/03/05 09:54:11;;;;;;;7.07;2.92;;;;;;;6.72;53.88;102350.56;4936530;29;20039;-76
2021/03/05 09:56:42;;;;;;;12.45;3.53;;;;;;;6.59;55.74;102349.06;4939888;28;20023;-75
2021/03/05 09:59:07;;;;;;;13.13;3.30;;;;;;;6.50;55.23;102345.69;4932050;28;20028;-76
2021/03/05 10:01:38;;;;;;;8.63;3.60;;;;;;;6.53;55.96;102351.88;4942749;28;20039;-75
2021/03/05 10:04:04;;;;;;;9.88;3.00;;;;;;;6.37;54.36;102349.50;4941638;28;20039;-75
2021/03/05 10:06:31;;;;;;;10.70;3.75;;;;;;;6.27;55.76;102353.28;4923887;29;20115;-76
2021/03/05 10:09:04;;;;;;;6.32;3.20;;;;;;;6.24;54.23;102358.69;4948766;28;20034;-75
2021/03/05 10:11:33;;;;;;;10.27;2.78;;;;;;;6.02;53.79;102354.69;4944332;28;20035;-75
2021/03/05 10:13:59;;;;;;;11.35;2.25;;;;;;;5.91;54.51;102349.56;4950811;28;20067;-75
2021/03/05 10:16:34;;;;;;;10.55;3.10;;;;;;;5.89;56.49;102356.72;4918187;29;20089;-76
2021/03/05 10:19:03;;;;;;;10.55;3.75;;;;;;;6.02;57.98;102362.69;4919025;28;20098;-75
2021/03/05 10:21:29;;;;;;;10.15;3.38;;;;;;;6.14;57.30;102351.78;4938281;29;20815;-76
2021/03/05 10:23:56;;;;;;;9.57;3.15;;;;;;;6.14;55.35;102357.13;4929800;29;20591;-76
2021/03/05 10:26:27;;;;;;;8.73;2.80;;;;;;;6.08;56.21;102351.91;4939240;28;20106;-76
2021/03/05 10:29:06;;;;;;;7.60;3.33;;;;;;;5.99;53.15;102352.06;4930205;29;20058;-76
2021/03/05 10:32:01;;;;;;;12.63;4.10;;;;;;;6.15;54.34;102352.66;4927599;29;20589;-76
2021/03/05 10:34:29;;;;;;;11.50;4.82;;;;;;;5.89;53.16;102347.84;4938276;28;20044;-76
2021/03/05 10:37:04;;;;;;;9.30;2.97;;;;;;;6.05;55.46;102351.94;4943312;28;20115;-75
2021/03/05 10:39:34;;;;;;;6.38;2.58;;;;;;;6.20;56.22;102366.78;4935780;29;20042;-76
2021/03/05 10:42:02;;;;;;;9.68;3.15;;;;;;;6.22;52.98;102371.19;4937128;28;20129;-75
2021/03/05 10:44:29;;;;;;;8.98;3.22;;;;;;;6.29;53.36;102378.16;4933560;29;20035;-76
2021/03/05 10:46:57;;;;;;;8.00;2.97;;;;;;;6.34;55.27;102373.59;4935443;29;20031;-76
2021/03/05 10:49:23;;;;;;;7.45;2.65;;;;;;;6.34;54.36;102381.59;4916286;29;20032;-76
2021/03/05 10:51:48;;;;;;;6.35;2.50;;;;;;;6.30;54.53;102379.00;4945121;28;20035;-75
2021/03/05 10:54:14;;;;;;;6.95;2.50;;;;;;;6.29;50.38;102382.59;4928817;29;20039;-75
2021/03/05 10:56:40;;;;;;;5.97;2.40;;;;;;;6.26;53.63;102380.88;4932909;28;20497;-76
2021/03/05 10:59:06;;;;;;;9.77;3.05;;;;;;;6.26;49.89;102383.53;4938043;28;20526;-76
2021/03/05 11:01:31;;;;;;;8.23;2.53;;;;;;;6.12;52.89;102379.38;4921714;28;20050;-76
2021/03/05 11:03:57;;;;;;;11.70;2.70;;;;;;;6.02;54.69;102379.56;4921734;28;20043;-76
2021/03/05 11:06:22;;;;;;;6.03;2.20;;;;;;;6.25;52.75;102381.78;4923242;29;20065;-75
2021/03/05 11:08:48;;;;;;;6.47;2.53;;;;;;;6.32;54.79;102380.75;4945322;28;20126;-76
2021/03/05 11:11:13;;;;;;;6.22;2.20;;;;;;;6.38;54.47;102388.63;4933201;29;20094;-75
2021/03/05 11:13:39;;;;;;;5.78;1.73;;;;;;;6.50;51.69;102379.47;4940363;28;20487;-76
2021/03/05 11:16:05;;;;;;;5.43;2.60;;;;;;;6.58;53.00;102385.53;4928469;28;20054;-76
2021/03/05 11:18:30;;;;;;;8.30;2.83;;;;;;;6.49;51.23;102385.72;4946926;28;20501;-76
2021/03/05 11:20:56;;;;;;;6.93;1.52;;;;;;;6.83;51.36;102393.91;4943182;28;20039;-76
2021/03/05 11:23:21;;;;;;;5.13;1.73;;;;;;;6.73;53.06;102395.88;4925929;29;20468;-76
2021/03/05 11:25:47;;;;;;;6.28;1.80;;;;;;;6.80;48.27;102394.81;4941205;28;20042;-77
2021/03/05 11:28:14;;;;;;;5.03;2.08;;;;;;;6.67;50.70;102389.78;4948815;28;20035;-76
2021/03/05 11:30:42;;;;;;;4.22;1.58;;;;;;;6.80;49.51;102404.63;4943923;28;20402;-76
2021/03/05 11:33:08;;;;;;;6.60;1.92;;;;;;;6.89;49.45;102404.44;4925975;28;20173;-75